Time;durP1;ratioP1;P1;durP2;ratioP2;P2;SDS_P1;SDS_P2;PMS_P1;PMS_P2;Temp;Humidity;BMP_temperature;BMP_pressure;BME280_temperature;BME280_humidity;BME280_pressure;Samples;Min_cycle;Max_cycle;Signal;HPM_P1;HPM_P2
2021/05/08 00:00:46;;;;;;;3.22;1.60;;;;;;;10.54;62.05;100909.91;4900494;28;125743;-59
2021/05/08 00:03:12;;;;;;;2.28;1.50;;;;;;;10.50;62.74;100909.59;4894078;28;103840;-62
2021/05/08 00:05:39;;;;;;;2.60;1.70;;;;;;;10.48;62.43;100909.03;4899059;28;98146;-62
2021/05/08 00:08:05;;;;;;;2.50;1.60;;;;;;;10.45;62.79;100909.56;4889271;28;128016;-62
2021/05/08 00:10:31;;;;;;;2.45;1.50;;;;;;;10.46;63.06;100911.19;4901298;28;98421;-62
2021/05/08 00:12:57;;;;;;;1.80;1.40;;;;;;;10.44;62.29;100920.59;4893354;28;128049;-62
2021/05/08 00:15:25;;;;;;;2.40;1.48;;;;;;;10.43;62.83;100918.97;4896228;28;123555;-59
2021/05/08 00:17:51;;;;;;;1.73;1.30;;;;;;;10.40;62.25;100916.78;4890532;28;98163;-59
2021/05/08 00:20:17;;;;;;;1.90;1.60;;;;;;;10.40;62.61;100917.56;4895018;28;112522;-62
2021/05/08 00:22:43;;;;;;;2.00;1.45;;;;;;;10.37;62.69;100919.97;4890602;28;98548;-62
2021/05/08 00:25:10;;;;;;;1.90;1.50;;;;;;;10.35;62.92;100917.53;4893469;28;98910;-62
2021/05/08 00:27:36;;;;;;;1.70;1.40;;;;;;;10.34;62.67;100920.50;4909375;28;98277;-59
2021/05/08 00:30:04;;;;;;;1.88;1.38;;;;;;;10.32;62.68;100918.84;4891149;28;127937;-62
2021/05/08 00:32:30;;;;;;;1.70;1.30;;;;;;;10.29;62.48;100924.75;4895696;28;108658;-63
2021/05/08 00:34:56;;;;;;;2.30;1.55;;;;;;;10.27;62.50;100923.38;4900621;28;122946;-59
2021/05/08 00:37:22;;;;;;;2.13;1.55;;;;;;;10.25;62.46;100918.22;4898832;28;126664;-59
2021/05/08 00:39:49;;;;;;;1.85;1.23;;;;;;;10.25;62.67;100920.94;4899750;28;128257;-59
2021/05/08 00:42:15;;;;;;;1.63;1.13;;;;;;;10.25;62.44;100926.31;4899658;28;98429;-63
2021/05/08 00:44:42;;;;;;;2.25;1.20;;;;;;;10.23;62.59;100920.34;4890178;28;122617;-59
2021/05/08 00:47:11;;;;;;;1.75;1.10;;;;;;;10.24;62.41;100930.06;4898513;28;97828;-62
2021/05/08 00:49:37;;;;;;;2.10;1.23;;;;;;;10.18;62.99;100927.56;4901375;28;98880;-62
2021/05/08 00:52:04;;;;;;;1.58;1.00;;;;;;;10.18;62.48;100928.41;4897357;28;103875;-59
2021/05/08 00:54:30;;;;;;;1.52;1.13;;;;;;;10.19;62.37;100923.81;4883904;28;110854;-62
2021/05/08 00:56:56;;;;;;;1.63;1.20;;;;;;;10.15;62.37;100923.50;4894435;28;129063;-62
2021/05/08 00:59:22;;;;;;;2.15;1.30;;;;;;;10.13;62.41;100928.31;4897945;28;127212;-62
2021/05/08 01:01:48;;;;;;;1.80;1.10;;;;;;;10.15;62.60;100936.16;4914980;28;99955;-62
2021/05/08 01:04:15;;;;;;;1.50;1.15;;;;;;;10.12;62.46;100933.97;4899351;28;123813;-59
2021/05/08 01:06:41;;;;;;;1.48;1.08;;;;;;;10.13;62.85;100928.31;4900407;28;99279;-59
2021/05/08 01:09:07;;;;;;;2.42;1.00;;;;;;;10.09;62.49;100933.41;4900343;28;98955;-62
2021/05/08 01:11:33;;;;;;;1.40;1.10;;;;;;;10.06;63.07;100935.78;4898532;28;112891;-62
2021/05/08 01:14:00;;;;;;;1.50;1.00;;;;;;;10.06;62.73;100935.78;4898269;28;97924;-59
2021/05/08 01:16:26;;;;;;;1.90;1.17;;;;;;;10.09;62.69;100936.09;4879573;28;128200;-59
2021/05/08 01:18:55;;;;;;;1.73;1.05;;;;;;;10.06;62.94;100933.09;4893499;28;127137;-59
2021/05/08 01:21:21;;;;;;;2.30;1.13;;;;;;;10.03;62.79;100942.50;4914236;28;117768;-62
2021/05/08 01:23:48;;;;;;;1.88;1.10;;;;;;;9.96;62.96;100933.78;4879335;28;97822;-62
2021/05/08 01:26:14;;;;;;;1.90;1.00;;;;;;;9.96;62.63;100933.78;4906041;28;99097;-59
2021/05/08 01:28:41;;;;;;;1.42;1.08;;;;;;;9.92;62.90;100938.06;4900285;28;105532;-62
2021/05/08 01:31:08;;;;;;;1.80;1.20;;;;;;;9.89;63.47;100938.56;4899682;28;98975;-59
2021/05/08 01:33:34;;;;;;;1.58;1.23;;;;;;;9.89;63.16;100940.44;4900646;28;97952;-62
2021/05/08 01:36:01;;;;;;;1.70;1.20;;;;;;;9.81;62.98;100937.09;4900118;28;99349;-62
2021/05/08 01:38:27;;;;;;;1.70;0.98;;;;;;;9.82;63.24;100932.53;4901465;28;98619;-59
2021/05/08 01:41:19;;;;;;;2.13;1.33;;;;;;;9.77;62.99;100937.88;4902227;28;119411;-59
2021/05/08 01:43:45;;;;;;;2.07;1.17;;;;;;;9.77;63.04;100935.97;4900168;28;118036;-59
2021/05/08 01:46:11;;;;;;;1.52;1.30;;;;;;;9.77;63.62;100946.75;4902606;28;99040;-59
2021/05/08 01:48:37;;;;;;;2.00;1.10;;;;;;;9.75;63.17;100940.81;4903711;28;97921;-59
2021/05/08 01:51:04;;;;;;;1.55;1.10;;;;;;;9.77;63.27;100945.94;4902282;28;113478;-59
2021/05/08 01:53:30;;;;;;;1.70;1.25;;;;;;;9.70;63.15;100938.03;4903960;28;98748;-62
2021/05/08 01:55:56;;;;;;;1.83;1.30;;;;;;;9.71;63.47;100939.69;4902225;28;126674;-62
2021/05/08 01:58:22;;;;;;;2.35;1.27;;;;;;;9.68;62.85;100942.06;4902901;28;125435;-59
2021/05/08 02:00:48;;;;;;;2.30;1.30;;;;;;;9.69;63.16;100943.69;4902494;28;127462;-62
2021/05/08 02:03:15;;;;;;;1.70;1.27;;;;;;;9.68;63.17;100944.75;4902713;28;114934;-64
2021/05/08 02:05:42;;;;;;;2.55;1.20;;;;;;;9.67;63.03;100943.09;4903319;28;98746;-62
2021/05/08 02:08:11;;;;;;;2.03;1.20;;;;;;;9.65;62.75;100942.56;4902579;28;118640;-59
2021/05/08 02:10:39;;;;;;;2.13;1.30;;;;;;;9.62;63.48;100943.06;4902177;28;116618;-59
2021/05/08 02:13:06;;;;;;;1.77;1.30;;;;;;;9.60;62.91;100946.00;4902899;28;98052;-59
2021/05/08 02:15:32;;;;;;;1.77;1.48;;;;;;;9.59;63.14;100936.31;4902392;28;115485;-62
2021/05/08 02:17:59;;;;;;;1.90;1.50;;;;;;;9.58;63.44;100945.41;4901094;28;98440;-62
2021/05/08 02:20:27;;;;;;;2.05;1.50;;;;;;;9.57;63.08;100941.94;4902199;28;128349;-62
2021/05/08 02:22:55;;;;;;;1.90;1.50;;;;;;;9.58;63.18;100940.03;4900139;28;105239;-62
2021/05/08 02:25:21;;;;;;;1.90;1.70;;;;;;;9.56;63.16;100934.09;4902756;28;99234;-62
2021/05/08 02:27:47;;;;;;;1.67;1.30;;;;;;;9.56;62.69;100936.81;4902774;28;98362;-62
2021/05/08 02:30:22;;;;;;;2.78;1.75;;;;;;;9.54;63.02;100945.09;4900907;28;126592;-62
2021/05/08 02:32:48;;;;;;;1.80;1.50;;;;;;;9.50;62.70;100940.47;4903297;28;97728;-62
2021/05/08 02:35:15;;;;;;;2.50;1.70;;;;;;;9.52;63.13;100954.50;4902418;28;115934;-60
2021/05/08 02:37:41;;;;;;;1.88;1.65;;;;;;;9.52;63.00;100944.56;4902719;28;98573;-62
2021/05/08 02:40:13;;;;;;;2.88;1.88;;;;;;;9.48;63.37;100948.81;4900580;28;127661;-59
2021/05/08 02:42:39;;;;;;;2.10;1.80;;;;;;;9.49;63.03;100949.63;4916136;28;97807;-59
2021/05/08 02:45:06;;;;;;;2.08;1.65;;;;;;;9.47;62.83;100951.72;4902045;28;126790;-59
2021/05/08 02:47:32;;;;;;;2.05;1.85;;;;;;;9.46;63.32;100955.50;4901834;28;99131;-59
2021/05/08 02:49:58;;;;;;;2.38;1.63;;;;;;;9.44;62.76;100955.75;4902248;28;111919;-62
2021/05/08 02:52:25;;;;;;;2.08;1.80;;;;;;;9.43;62.95;100953.28;4900747;28;122885;-62
2021/05/08 02:54:51;;;;;;;1.98;1.70;;;;;;;9.42;63.02;100952.47;4902286;28;109014;-62
2021/05/08 02:57:17;;;;;;;2.13;1.60;;;;;;;9.40;63.14;100960.00;4901190;28;127864;-59
2021/05/08 02:59:43;;;;;;;1.90;1.70;;;;;;;9.38;62.96;100963.97;4901237;28;127714;-60
2021/05/08 03:02:09;;;;;;;2.00;1.52;;;;;;;9.36;63.18;100963.44;4899935;28;98029;-59
2021/05/08 03:04:35;;;;;;;2.35;1.60;;;;;;;9.37;63.28;100960.47;4902037;28;98564;-62
2021/05/08 03:07:01;;;;;;;2.17;1.80;;;;;;;9.33;63.43;100962.03;4901161;28;128504;-59
2021/05/08 03:09:28;;;;;;;1.90;1.60;;;;;;;9.34;63.37;100966.34;4901842;28;97794;-62
2021/05/08 03:11:54;;;;;;;2.38;1.77;;;;;;;9.32;63.25;100963.91;4901495;28;97940;-59
2021/05/08 03:14:20;;;;;;;2.15;1.60;;;;;;;9.32;63.24;100963.91;4901761;28;98262;-62
2021/05/08 03:16:46;;;;;;;3.05;1.63;;;;;;;9.32;62.88;100972.00;4901282;28;128300;-62
2021/05/08 03:19:12;;;;;;;2.00;1.55;;;;;;;9.29;63.20;100972.47;4901005;28;98264;-60
2021/05/08 03:21:38;;;;;;;1.70;1.50;;;;;;;9.30;63.42;100973.28;4900341;28;121414;-62
2021/05/08 03:24:05;;;;;;;2.10;1.73;;;;;;;9.29;63.30;100979.75;4901045;28;126581;-59
2021/05/08 03:26:32;;;;;;;2.45;1.90;;;;;;;9.24;63.26;100961.66;4900240;28;112348;-59
2021/05/08 03:28:58;;;;;;;2.20;1.63;;;;;;;9.27;62.94;100971.09;4900911;28;98161;-62
2021/05/08 03:31:24;;;;;;;2.35;1.80;;;;;;;9.27;63.12;100971.91;4901713;28;97975;-62
2021/05/08 03:33:50;;;;;;;2.05;1.58;;;;;;;9.26;63.11;100972.16;4901638;28;98777;-59
2021/05/08 03:36:16;;;;;;;2.35;1.30;;;;;;;9.28;63.09;100968.16;4901311;28;98576;-59
2021/05/08 03:38:42;;;;;;;3.28;1.80;;;;;;;9.26;63.19;100962.19;4899987;28;128606;-62
2021/05/08 03:41:08;;;;;;;2.00;1.70;;;;;;;9.27;62.99;100969.22;4900526;28;123395;-62
2021/05/08 03:43:34;;;;;;;2.03;1.40;;;;;;;9.29;62.96;100977.03;4899076;28;127703;-59
2021/05/08 03:46:00;;;;;;;2.10;1.50;;;;;;;9.29;63.00;100975.16;4900506;28;127511;-62
2021/05/08 03:48:26;;;;;;;2.20;1.42;;;;;;;9.31;62.67;100977.59;4900917;28;127402;-61
2021/05/08 03:50:52;;;;;;;2.42;1.63;;;;;;;9.33;62.59;100972.81;4900171;28;121883;-59
2021/05/08 03:53:22;;;;;;;2.00;1.50;;;;;;;9.34;62.94;100977.13;4900802;28;98986;-59
2021/05/08 03:55:51;;;;;;;2.30;1.50;;;;;;;9.34;62.54;100993.25;4901146;28;98836;-59
2021/05/08 03:58:25;;;;;;;2.05;1.58;;;;;;;9.32;62.17;100984.63;4901778;28;97718;-62
2021/05/08 04:00:51;;;;;;;2.00;1.55;;;;;;;9.36;62.45;100979.56;4914728;28;98009;-62
2021/05/08 04:03:17;;;;;;;2.40;1.58;;;;;;;9.34;62.58;100987.88;4901198;28;98944;-59
2021/05/08 04:05:43;;;;;;;2.00;1.50;;;;;;;9.36;62.35;100988.47;4900180;28;128867;-62
2021/05/08 04:08:10;;;;;;;2.20;1.77;;;;;;;9.38;62.58;100989.00;4901068;28;114819;-62
2021/05/08 04:10:36;;;;;;;2.17;1.50;;;;;;;9.41;62.71;100993.09;4901038;28;97972;-62
2021/05/08 04:13:02;;;;;;;2.58;1.70;;;;;;;9.38;62.78;100994.41;4900483;28;126422;-62
2021/05/08 04:15:28;;;;;;;2.95;1.40;;;;;;;9.40;62.72;101000.34;4900220;28;128169;-62
2021/05/08 04:17:54;;;;;;;1.70;1.23;;;;;;;9.44;62.22;100996.13;4913493;28;127655;-62
2021/05/08 04:20:20;;;;;;;1.73;1.40;;;;;;;9.45;62.00;101000.44;4914312;28;123502;-59
2021/05/08 04:22:46;;;;;;;1.73;1.40;;;;;;;9.46;62.40;100991.28;4865752;28;130025;-62
2021/05/08 04:25:12;;;;;;;1.92;1.30;;;;;;;9.47;62.17;101002.84;4898048;28;123822;-62
2021/05/08 04:27:38;;;;;;;2.22;1.45;;;;;;;9.51;62.38;100996.75;4899301;28;127640;-62
2021/05/08 04:30:06;;;;;;;2.03;1.45;;;;;;;9.50;62.39;101002.38;4900548;28;97983;-62
2021/05/08 04:32:32;;;;;;;2.60;1.70;;;;;;;9.53;61.86;101005.38;4899092;28;118495;-62
2021/05/08 04:34:58;;;;;;;2.20;1.50;;;;;;;9.56;62.14;101009.47;4900252;28;128617;-62
2021/05/08 04:37:24;;;;;;;2.03;1.20;;;;;;;9.58;62.32;101016.22;4899963;28;97888;-60
2021/05/08 04:39:50;;;;;;;1.80;1.30;;;;;;;9.62;62.63;101007.66;4899933;28;105824;-62
2021/05/08 04:42:16;;;;;;;2.85;1.23;;;;;;;9.63;62.00;101015.50;4898351;28;127847;-62
2021/05/08 04:44:42;;;;;;;1.67;1.27;;;;;;;9.66;62.31;101006.91;4895958;28;128143;-62
2021/05/08 04:47:12;;;;;;;1.40;1.17;;;;;;;9.72;62.08;101011.31;4896704;28;100156;-59
2021/05/08 04:49:38;;;;;;;1.38;1.13;;;;;;;9.81;62.07;101015.19;4896047;28;98200;-59
2021/05/08 04:52:05;;;;;;;2.15;1.33;;;;;;;9.95;61.60;101007.59;4895128;28;98397;-60
2021/05/08 04:54:31;;;;;;;2.00;1.33;;;;;;;10.03;61.92;101017.09;4894742;28;123209;-62
2021/05/08 04:56:57;;;;;;;2.20;1.20;;;;;;;10.19;61.15;101016.22;4895900;28;127427;-60
2021/05/08 04:59:23;;;;;;;2.58;1.52;;;;;;;10.23;60.18;101013.84;4894632;28;124398;-73
2021/05/08 05:01:49;;;;;;;2.15;1.38;;;;;;;10.55;59.53;101013.97;4896421;28;128486;-73
2021/05/08 05:04:15;;;;;;;2.30;1.50;;;;;;;10.65;59.46;101015.94;4896648;28;97774;-64
2021/05/08 05:06:41;;;;;;;2.40;1.25;;;;;;;10.77;59.61;101013.91;4896690;28;98174;-64
2021/05/08 05:09:07;;;;;;;2.55;1.38;;;;;;;10.86;59.76;101011.56;4896728;28;123550;-64
2021/05/08 05:11:33;;;;;;;2.10;1.48;;;;;;;10.97;59.58;101011.41;4879336;28;100178;-64
2021/05/08 05:13:59;;;;;;;1.63;1.23;;;;;;;10.93;59.28;101012.19;4900106;28;116998;-72
2021/05/08 05:16:26;;;;;;;2.28;1.27;;;;;;;11.08;59.58;101020.38;4864570;28;127940;-72
2021/05/08 05:18:52;;;;;;;2.00;1.23;;;;;;;11.25;59.04;101009.47;4900861;28;97892;-72
2021/05/08 05:21:18;;;;;;;2.95;1.55;;;;;;;11.37;58.89;101014.69;4899363;28;97940;-64
2021/05/08 05:23:44;;;;;;;2.92;1.10;;;;;;;11.57;58.92;101017.50;4897166;28;128305;-72
2021/05/08 05:26:10;;;;;;;2.53;1.10;;;;;;;11.69;58.64;101012.72;4898657;28;126855;-68
2021/05/08 05:28:36;;;;;;;2.50;1.13;;;;;;;11.77;58.90;101014.94;4899403;28;121676;-72
2021/05/08 05:31:02;;;;;;;1.88;1.25;;;;;;;11.90;58.31;101010.97;4899160;28;127681;-64
2021/05/08 05:33:28;;;;;;;1.98;1.15;;;;;;;12.02;58.63;101018.84;4899911;28;98427;-64
2021/05/08 05:35:55;;;;;;;2.72;1.20;;;;;;;12.09;58.43;101018.63;4865013;28;116580;-64
2021/05/08 05:38:22;;;;;;;2.05;1.30;;;;;;;11.99;58.54;101028.31;4899551;28;97971;-64
2021/05/08 05:40:50;;;;;;;2.63;1.48;;;;;;;12.44;57.59;101018.75;4881723;28;99831;-64
2021/05/08 05:43:16;;;;;;;2.22;1.60;;;;;;;12.96;56.45;101017.75;4898074;28;98505;-64
2021/05/08 05:45:42;;;;;;;2.28;1.50;;;;;;;13.36;55.45;101007.22;4898918;28;127586;-64
2021/05/08 05:48:09;;;;;;;2.03;1.65;;;;;;;13.57;54.74;101010.72;4898413;28;98281;-64
2021/05/08 05:50:39;;;;;;;1.65;1.50;;;;;;;13.44;55.06;101021.03;4896787;28;98422;-65
2021/05/08 05:53:05;;;;;;;1.77;1.23;;;;;;;13.18;56.44;101030.22;4899350;28;112294;-64
2021/05/08 05:55:31;;;;;;;2.53;1.30;;;;;;;13.78;54.55;101031.25;4901433;28;98345;-65
2021/05/08 05:57:58;;;;;;;2.05;1.48;;;;;;;14.37;53.10;101026.97;4898098;28;119905;-65
2021/05/08 06:00:24;;;;;;;3.63;1.40;;;;;;;14.58;52.49;101024.97;4897029;28;128122;-73
2021/05/08 06:02:50;;;;;;;2.10;1.63;;;;;;;14.68;51.18;101024.91;4881906;28;98117;-73
2021/05/08 06:05:16;;;;;;;2.08;1.60;;;;;;;15.19;49.64;101022.63;4898665;28;98720;-73
2021/05/08 06:07:42;;;;;;;2.13;1.30;;;;;;;15.82;48.11;101026.41;4899767;28;122805;-73
2021/05/08 06:10:10;;;;;;;2.45;1.40;;;;;;;16.26;46.43;101025.34;4899815;28;99404;-73
2021/05/08 06:12:37;;;;;;;1.98;1.27;;;;;;;16.78;45.23;101018.94;4900155;28;99324;-73
2021/05/08 06:15:05;;;;;;;2.60;1.38;;;;;;;17.48;43.34;101023.47;4898663;28;98255;-73
2021/05/08 06:17:31;;;;;;;2.33;1.27;;;;;;;18.18;42.93;101024.38;4899957;28;103691;-65
2021/05/08 06:19:57;;;;;;;1.67;1.00;;;;;;;18.72;42.94;101020.75;4898577;28;120992;-65
2021/05/08 06:22:23;;;;;;;1.50;0.85;;;;;;;19.25;42.84;101025.44;4897271;28;128433;-65
2021/05/08 06:24:49;;;;;;;2.30;1.23;;;;;;;19.82;42.19;101020.16;4898285;28;126643;-65
2021/05/08 06:27:15;;;;;;;1.85;1.10;;;;;;;20.21;41.30;101017.69;4896412;28;123193;-65
2021/05/08 06:29:41;;;;;;;1.00;0.70;;;;;;;20.62;41.06;101016.47;4865584;28;109456;-73
2021/05/08 06:32:07;;;;;;;1.60;0.73;;;;;;;20.90;40.76;101016.97;4897727;28;98762;-65
2021/05/08 06:34:33;;;;;;;1.70;1.00;;;;;;;21.24;40.58;101018.84;4899805;28;98669;-65
2021/05/08 06:37:00;;;;;;;1.50;0.60;;;;;;;21.44;39.30;101018.19;4880779;28;123384;-73
2021/05/08 06:39:28;;;;;;;1.25;0.90;;;;;;;21.66;40.31;101014.41;4899478;28;99655;-66
2021/05/08 06:41:54;;;;;;;1.02;0.52;;;;;;;21.89;40.14;101022.34;4898388;28;113906;-73
2021/05/08 06:44:20;;;;;;;1.27;0.60;;;;;;;21.59;41.22;101024.28;4865402;28;102650;-73
2021/05/08 06:46:46;;;;;;;1.30;0.70;;;;;;;21.84;40.67;101017.88;4898097;28;97798;-65
2021/05/08 06:49:12;;;;;;;1.77;0.63;;;;;;;22.20;38.77;101028.34;4897625;28;98686;-65
2021/05/08 06:51:38;;;;;;;1.35;0.98;;;;;;;22.79;38.64;101021.94;4898409;28;98285;-73
2021/05/08 06:54:05;;;;;;;1.17;0.70;;;;;;;23.23;39.19;101027.91;4897504;28;97937;-73
2021/05/08 06:56:31;;;;;;;1.67;0.60;;;;;;;22.62;39.93;101033.09;4897253;28;98218;-73
2021/05/08 06:58:58;;;;;;;1.23;0.73;;;;;;;22.83;40.05;101031.13;4899605;28;116412;-73
2021/05/08 07:01:24;;;;;;;1.40;0.90;;;;;;;23.26;38.74;101030.78;4897908;28;126851;-72
2021/05/08 07:03:50;;;;;;;1.08;0.60;;;;;;;23.50;39.31;101030.03;4897145;28;127888;-65
2021/05/08 07:06:17;;;;;;;1.25;0.70;;;;;;;24.09;38.50;101030.75;4898818;28;98256;-72
2021/05/08 07:08:43;;;;;;;1.15;0.68;;;;;;;24.34;39.06;101039.81;4899080;28;100572;-72
2021/05/08 07:11:09;;;;;;;1.70;0.60;;;;;;;24.74;38.45;101040.66;4898435;28;106675;-72
2021/05/08 07:13:35;;;;;;;1.67;0.50;;;;;;;25.13;38.43;101035.47;4898234;28;127292;-64
2021/05/08 07:16:01;;;;;;;0.95;0.47;;;;;;;25.68;37.69;101038.47;4897339;28;123995;-73
2021/05/08 07:18:27;;;;;;;1.17;0.50;;;;;;;26.14;37.07;101036.88;4897813;28;126225;-66
2021/05/08 07:20:53;;;;;;;0.90;0.30;;;;;;;26.54;36.46;101037.78;4897378;28;127884;-72
2021/05/08 07:23:19;;;;;;;2.45;0.40;;;;;;;26.74;36.35;101030.28;4898731;28;98768;-64
2021/05/08 07:25:45;;;;;;;1.33;0.50;;;;;;;27.02;35.20;101043.88;4897861;28;106528;-72
2021/05/08 07:28:13;;;;;;;1.77;0.57;;;;;;;27.33;35.62;101037.41;4898383;28;117586;-72
2021/05/08 07:30:39;;;;;;;1.98;0.50;;;;;;;27.66;35.21;101042.31;4898377;28;97997;-71
2021/05/08 07:33:05;;;;;;;2.08;0.60;;;;;;;27.86;34.44;101032.81;4898340;28;112922;-71
2021/05/08 07:35:31;;;;;;;1.23;0.40;;;;;;;28.08;34.46;101041.44;4898791;28;98103;-64
2021/05/08 07:37:57;;;;;;;1.70;0.40;;;;;;;28.44;34.11;101033.66;4898191;28;97876;-72
2021/05/08 07:40:23;;;;;;;1.63;0.40;;;;;;;28.73;33.76;101032.88;4895998;28;128978;-64
2021/05/08 07:42:50;;;;;;;1.30;0.40;;;;;;;28.98;33.42;101035.16;4898540;28;98260;-72
2021/05/08 07:45:16;;;;;;;0.60;0.40;;;;;;;29.32;32.52;101022.06;4898753;28;98030;-64
2021/05/08 07:47:42;;;;;;;3.17;0.45;;;;;;;29.72;32.00;101031.53;4897709;28;99150;-72
2021/05/08 07:50:09;;;;;;;0.98;0.47;;;;;;;30.23;31.81;101030.75;4891105;28;105745;-64
2021/05/08 07:52:35;;;;;;;0.85;0.40;;;;;;;30.69;31.14;101022.59;4897667;28;97975;-72
2021/05/08 07:55:02;;;;;;;1.00;0.38;;;;;;;31.40;30.36;101026.81;4898461;28;97832;-64
2021/05/08 07:57:28;;;;;;;0.82;0.30;;;;;;;31.89;29.50;101040.00;4898532;28;98558;-64
2021/05/08 07:59:54;;;;;;;1.23;0.40;;;;;;;32.41;28.89;101031.16;4897111;28;112474;-72
2021/05/08 08:02:20;;;;;;;0.82;0.25;;;;;;;32.75;28.55;101037.00;4897068;28;127984;-72
2021/05/08 08:04:46;;;;;;;0.90;0.30;;;;;;;33.19;28.45;101030.00;4897344;28;121714;-72
2021/05/08 08:07:12;;;;;;;0.88;0.30;;;;;;;33.58;27.77;101024.16;4895448;28;123524;-62
2021/05/08 08:09:40;;;;;;;1.00;0.38;;;;;;;34.00;27.02;101035.38;4897137;28;126920;-62
2021/05/08 08:12:07;;;;;;;1.70;0.30;;;;;;;34.68;25.97;101032.63;4895342;28;113651;-70
2021/05/08 08:14:33;;;;;;;0.80;0.30;;;;;;;35.07;25.25;101034.13;4895601;28;108209;-69
2021/05/08 08:16:59;;;;;;;0.85;0.40;;;;;;;35.58;24.77;101026.56;4896392;28;126728;-62
2021/05/08 08:19:25;;;;;;;1.02;0.32;;;;;;;36.23;23.99;101034.59;4897098;28;129044;-62
2021/05/08 08:21:51;;;;;;;0.90;0.30;;;;;;;36.56;23.62;101030.75;4896233;28;127593;-62
2021/05/08 08:24:17;;;;;;;1.17;0.40;;;;;;;36.85;23.23;101030.94;4896997;28;123619;-69
2021/05/08 08:26:43;;;;;;;1.33;0.35;;;;;;;37.32;22.59;101030.66;4878193;28;127506;-69
2021/05/08 08:29:09;;;;;;;1.15;0.30;;;;;;;37.66;22.29;101026.66;4897172;28;128026;-70
2021/05/08 08:31:35;;;;;;;1.00;0.38;;;;;;;37.95;22.08;101029.53;4896648;28;98093;-69
2021/05/08 08:34:01;;;;;;;1.30;0.30;;;;;;;38.37;21.70;101018.34;4897365;28;120281;-70
2021/05/08 08:36:27;;;;;;;0.70;0.30;;;;;;;38.55;21.39;101021.44;4896701;28;115664;-70
2021/05/08 08:38:53;;;;;;;0.85;0.30;;;;;;;39.14;20.75;101021.25;4897500;28;114379;-62
2021/05/08 08:41:19;;;;;;;0.50;0.30;;;;;;;38.07;21.61;101019.56;4895814;28;128335;-63
2021/05/08 08:43:46;;;;;;;0.60;0.20;;;;;;;38.70;20.68;101004.88;4894919;28;123130;-69
2021/05/08 08:46:12;;;;;;;0.60;0.30;;;;;;;39.35;20.46;101011.34;4895819;28;99336;-70
2021/05/08 08:48:40;;;;;;;0.77;0.30;;;;;;;39.83;19.75;101000.88;4897584;28;126102;-63
2021/05/08 08:51:06;;;;;;;1.42;0.40;;;;;;;40.24;19.14;101011.06;4898507;28;98048;-70
2021/05/08 08:53:32;;;;;;;0.75;0.30;;;;;;;40.65;18.82;101003.53;4899981;28;112263;-70
2021/05/08 08:55:59;;;;;;;1.05;0.35;;;;;;;40.79;18.74;100996.50;4881467;28;127781;-63
2021/05/08 08:58:31;;;;;;;1.05;0.28;;;;;;;41.00;18.56;101004.16;4898573;28;98510;-63
2021/05/08 09:00:58;;;;;;;0.70;0.28;;;;;;;41.30;18.40;100991.19;4898323;28;97922;-63
2021/05/08 09:03:24;;;;;;;0.90;0.30;;;;;;;41.50;18.35;100998.47;4899544;28;97975;-70
2021/05/08 09:05:50;;;;;;;0.75;0.30;;;;;;;41.67;18.04;100986.41;4899086;28;125986;-70
2021/05/08 09:08:17;;;;;;;0.95;0.30;;;;;;;41.99;17.57;100986.28;4900058;28;103169;-63
2021/05/08 09:10:43;;;;;;;0.65;0.20;;;;;;;41.76;17.92;100988.44;4898438;28;98844;-63
2021/05/08 09:13:18;;;;;;;0.65;0.30;;;;;;;41.22;18.57;100987.09;4892108;28;124649;-70
2021/05/08 09:15:46;;;;;;;1.98;0.28;;;;;;;40.93;18.79;100988.25;4891540;28;99096;-70
2021/05/08 09:18:34;;;;;;;0.50;0.20;;;;;;;39.30;20.65;100966.81;4896038;28;98347;-63
2021/05/08 09:21:00;;;;;;;0.93;0.30;;;;;;;39.75;20.30;100970.09;4893555;28;98020;-63
2021/05/08 09:23:41;;;;;;;0.70;0.20;;;;;;;36.27;23.72;100968.78;4888859;28;105884;-63
2021/05/08 09:26:11;;;;;;;0.50;0.20;;;;;;;37.28;22.37;100967.38;4889100;28;99069;-63
2021/05/08 09:28:39;;;;;;;0.80;0.20;;;;;;;37.07;22.16;100969.47;4892143;28;98583;-70
2021/05/08 09:31:07;;;;;;;0.60;0.25;;;;;;;36.82;22.54;100964.41;4869021;28;99231;-62
2021/05/08 09:33:34;;;;;;;2.15;0.30;;;;;;;39.27;19.92;100958.03;4890695;28;98309;-70
2021/05/08 09:36:03;;;;;;;0.68;0.20;;;;;;;38.95;19.77;100970.34;4890934;28;99419;-70
2021/05/08 09:38:40;;;;;;;0.60;0.20;;;;;;;40.46;18.48;100969.50;4891847;28;98942;-70
2021/05/08 09:41:11;;;;;;;0.70;0.20;;;;;;;41.55;17.45;100969.59;4891811;28;116151;-71
2021/05/08 09:43:38;;;;;;;0.75;0.20;;;;;;;41.64;17.56;100967.56;4889743;28;97947;-70
2021/05/08 09:46:05;;;;;;;0.60;0.20;;;;;;;40.90;18.09;100963.75;4894104;28;98593;-63
2021/05/08 09:48:33;;;;;;;1.25;0.10;;;;;;;40.02;19.10;100963.09;4886927;28;98438;-63
2021/05/08 09:51:26;;;;;;;0.70;0.10;;;;;;;36.45;23.65;100954.41;4889079;28;98652;-62
2021/05/08 09:53:54;;;;;;;0.65;0.20;;;;;;;36.87;22.24;100940.66;4888038;28;98050;-72
2021/05/08 09:56:40;;;;;;;0.82;0.20;;;;;;;37.45;20.99;100956.94;4888557;28;98489;-72
2021/05/08 09:59:37;;;;;;;0.50;0.20;;;;;;;39.45;19.31;100945.38;4890420;28;99101;-65
2021/05/08 10:02:03;;;;;;;2.20;1.38;;;;;;;38.86;14.77;100933.59;4887422;28;97845;-64
2021/05/08 10:04:46;;;;;;;2.88;2.53;;;;;;;35.62;14.49;100932.78;4889899;28;97757;-72
2021/05/08 10:07:17;;;;;;;2.60;2.40;;;;;;;36.09;13.24;100926.31;4891222;28;98499;-65
2021/05/08 10:09:48;;;;;;;2.50;2.30;;;;;;;36.36;12.93;100917.72;4887378;28;108181;-72
2021/05/08 10:12:21;;;;;;;1.98;1.60;;;;;;;34.86;13.78;100923.22;4897833;28;111031;-73
2021/05/08 10:14:49;;;;;;;3.17;2.88;;;;;;;32.50;14.76;100931.91;4896441;28;98183;-65
2021/05/08 10:17:20;;;;;;;1.95;1.50;;;;;;;32.96;13.86;100925.25;4898537;28;99042;-72
2021/05/08 10:19:49;;;;;;;2.22;1.98;;;;;;;28.92;17.54;100934.00;4887104;28;98579;-72
2021/05/08 10:22:15;;;;;;;2.83;2.50;;;;;;;26.41;18.94;100941.16;4895135;28;97954;-64
2021/05/08 10:24:44;;;;;;;2.53;2.30;;;;;;;26.77;19.02;100936.38;4888666;28;98045;-71
2021/05/08 10:27:10;;;;;;;2.63;2.40;;;;;;;26.80;19.11;100923.75;4890806;28;99645;-64
2021/05/08 10:29:47;;;;;;;3.17;2.70;;;;;;;27.94;18.53;100922.13;4878093;28;98164;-72
2021/05/08 10:32:20;;;;;;;2.60;2.00;;;;;;;26.86;19.31;100920.34;4893926;28;98200;-64
2021/05/08 10:35:02;;;;;;;2.85;2.10;;;;;;;26.37;19.70;100920.13;4886752;28;97964;-71
2021/05/08 10:37:28;;;;;;;3.10;2.00;;;;;;;24.89;21.61;100928.84;4888824;28;98358;-64
2021/05/08 10:40:05;;;;;;;2.53;1.90;;;;;;;29.39;17.87;100913.03;4891783;28;98762;-71
2021/05/08 10:42:42;;;;;;;2.85;2.00;;;;;;;29.74;16.87;100920.84;4891875;28;98425;-64
2021/05/08 10:45:18;;;;;;;2.97;1.88;;;;;;;31.60;14.98;100913.03;4888037;28;97839;-71
2021/05/08 10:47:59;;;;;;;3.03;2.10;;;;;;;31.28;14.69;100911.84;4886901;28;98026;-64
2021/05/08 10:50:35;;;;;;;2.03;1.77;;;;;;;32.56;14.15;100917.53;4890706;28;98829;-65
2021/05/08 10:53:11;;;;;;;1.90;1.42;;;;;;;33.46;13.49;100907.34;4884998;28;97778;-72
2021/05/08 10:55:51;;;;;;;4.22;1.88;;;;;;;30.27;15.24;100920.38;4890844;28;97964;-71
2021/05/08 10:58:17;;;;;;;2.28;2.08;;;;;;;27.51;17.71;100927.81;4891179;28;98760;-64
2021/05/08 11:00:52;;;;;;;2.45;1.95;;;;;;;25.38;19.76;100928.53;4891961;28;98260;-71
2021/05/08 11:03:28;;;;;;;2.70;2.35;;;;;;;26.96;17.71;100913.41;4889245;28;98145;-71
2021/05/08 11:06:04;;;;;;;2.20;1.80;;;;;;;25.65;18.22;100907.50;4887119;28;97963;-64
2021/05/08 11:08:30;;;;;;;2.08;1.60;;;;;;;25.53;19.46;100912.34;4890770;28;98393;-64
2021/05/08 11:10:57;;;;;;;1.67;1.20;;;;;;;28.63;16.73;100892.13;4887579;28;98097;-71
2021/05/08 11:13:27;;;;;;;2.08;1.30;;;;;;;29.69;16.67;100888.69;4896435;28;97935;-64
2021/05/08 11:18:34;;;;;;;2.50;1.58;;;;;;;30.27;15.53;100885.03;4887241;28;98227;-64
2021/05/08 11:21:03;;;;;;;2.00;1.33;;;;;;;27.19;18.02;100899.59;4893707;28;98284;-64
2021/05/08 11:23:47;;;;;;;1.88;1.33;;;;;;;25.33;19.06;100892.94;4894694;28;98047;-63
2021/05/08 11:28:57;;;;;;;1.95;1.20;;;;;;;24.77;20.16;100889.53;4883557;28;98239;-63
2021/05/08 11:31:24;;;;;;;1.75;1.27;;;;;;;24.07;20.89;100892.66;4891169;28;116736;-70